createdAt,value
2022-10-09T00:00:17.426Z,91.73
2022-10-09T00:00:48.187Z,91.73
2022-10-09T00:01:18.989Z,90.80
2022-10-09T00:01:49.778Z,90.19
2022-10-09T00:02:20.644Z,90.49
2022-10-09T00:02:51.888Z,91.11
2022-10-09T00:03:22.759Z,90.39
2022-10-09T00:03:53.579Z,90.49
2022-10-09T00:04:24.348Z,90.70
2022-10-09T00:04:55.172Z,91.36
2022-10-09T00:05:26.024Z,90.95
2022-10-09T00:05:56.839Z,91.26
2022-10-09T00:06:27.782Z,91.46
2022-10-09T00:06:58.641Z,91.67
2022-10-09T00:07:29.387Z,91.56
2022-10-09T00:08:00.180Z,91.16
2022-10-09T00:08:30.969Z,90.84
2022-10-09T00:09:01.813Z,91.05
2022-10-09T00:09:32.630Z,91.56
2022-10-09T00:10:03.423Z,91.56
2022-10-09T00:10:34.241Z,91.30
2022-10-09T00:11:05.082Z,91.09
2022-10-09T00:11:35.865Z,91.30
2022-10-09T00:12:06.657Z,91.40
2022-10-09T00:12:37.469Z,92.33
2022-10-09T00:13:08.239Z,92.44
2022-10-09T00:13:39.019Z,92.64
2022-10-09T00:14:09.808Z,93.05
2022-10-09T00:14:40.580Z,93.16
2022-10-09T00:15:11.416Z,92.64
2022-10-09T00:15:42.214Z,92.44
2022-10-09T00:16:12.990Z,92.13
2022-10-09T00:16:43.877Z,92.23
2022-10-09T00:17:14.669Z,92.23
2022-10-09T00:17:45.448Z,92.13
2022-10-09T00:18:16.236Z,92.13
2022-10-09T00:18:47.059Z,91.92
2022-10-09T00:19:17.871Z,91.92
2022-10-09T00:19:48.671Z,93.05
2022-10-09T00:20:19.450Z,93.16
2022-10-09T00:20:50.250Z,93.98
2022-10-09T00:21:21.033Z,93.98
2022-10-09T00:21:51.853Z,93.98
2022-10-09T00:22:22.677Z,93.68
2022-10-09T00:22:53.442Z,93.78
2022-10-09T00:23:24.221Z,93.88
2022-10-09T00:23:55.018Z,93.98
2022-10-09T00:24:25.814Z,93.88
2022-10-09T00:24:56.636Z,93.57
2022-10-09T00:25:27.444Z,93.47
2022-10-09T00:25:58.225Z,93.57
2022-10-09T00:26:29.056Z,94.09
2022-10-09T00:26:59.851Z,94.71
2022-10-09T00:27:30.616Z,94.92
2022-10-09T00:28:01.382Z,95.12
2022-10-09T00:28:36.531Z,95.22
2022-10-09T00:29:04.790Z,95.43
2022-10-09T00:29:35.573Z,95.53
2022-10-09T00:30:06.352Z,95.64
2022-10-09T00:30:37.207Z,95.84
2022-10-09T00:31:08.032Z,95.95
2022-10-09T00:31:38.897Z,96.15
2022-10-09T00:32:09.655Z,96.36
2022-10-09T00:32:40.474Z,96.47
2022-10-09T00:33:11.234Z,96.52
2022-10-09T00:33:42.013Z,96.62
2022-10-09T00:34:12.806Z,96.73
2022-10-09T00:34:43.613Z,96.83
2022-10-09T00:35:14.423Z,96.94
2022-10-09T00:35:45.204Z,96.83
2022-10-09T00:36:15.982Z,96.83
2022-10-09T00:36:46.772Z,96.94
2022-10-09T00:37:17.535Z,97.04
2022-10-09T00:37:48.325Z,97.14
2022-10-09T00:38:19.122Z,97.14
2022-10-09T00:38:49.937Z,96.94
2022-10-09T00:39:20.716Z,96.73
2022-10-09T00:39:51.537Z,96.62
2022-10-09T00:40:22.353Z,96.62
2022-10-09T00:40:53.185Z,96.52
2022-10-09T00:41:23.974Z,96.42
2022-10-09T00:41:54.769Z,96.37
2022-10-09T00:42:25.738Z,96.27
2022-10-09T00:42:56.558Z,96.37
2022-10-09T00:43:27.306Z,96.48
2022-10-09T00:43:58.124Z,96.48
2022-10-09T00:44:28.906Z,96.27
2022-10-09T00:44:59.689Z,95.86
2022-10-09T00:45:30.458Z,95.34
2022-10-09T00:46:01.254Z,94.82
2022-10-09T00:46:32.146Z,94.52
2022-10-09T00:47:03.006Z,94.31
2022-10-09T00:47:33.774Z,94.42
2022-10-09T00:48:04.558Z,94.10
2022-10-09T00:48:35.346Z,93.49
2022-10-09T00:49:06.149Z,93.49
2022-10-09T00:49:36.924Z,93.79
2022-10-09T00:50:07.706Z,93.90
2022-10-09T00:50:38.506Z,93.73
2022-10-09T00:51:09.284Z,93.43
2022-10-09T00:51:40.045Z,93.01
2022-10-09T00:52:10.917Z,92.29
2022-10-09T00:52:41.708Z,92.50
2022-10-09T00:53:12.466Z,92.29
2022-10-09T00:53:43.247Z,92.60
2022-10-09T00:54:14.098Z,92.60
2022-10-09T00:54:44.917Z,92.91
2022-10-09T00:55:15.712Z,93.01
2022-10-09T00:55:46.477Z,92.91
2022-10-09T00:56:17.278Z,92.70
2022-10-09T00:56:48.294Z,92.80
2022-10-09T00:57:19.050Z,92.60
2022-10-09T00:57:49.826Z,92.70
2022-10-09T00:58:20.607Z,92.60
2022-10-09T00:58:51.389Z,92.50
2022-10-09T00:59:22.220Z,92.33
2022-10-09T00:59:52.999Z,92.74
2022-10-09T01:00:23.764Z,92.91
2022-10-09T01:00:54.570Z,93.26
2022-10-09T01:01:25.419Z,93.37
2022-10-09T01:01:56.380Z,93.37
2022-10-09T01:02:27.242Z,93.57
2022-10-09T01:02:58.044Z,93.05
2022-10-09T01:03:28.829Z,92.44
2022-10-09T01:03:59.618Z,92.33
2022-10-09T01:04:30.437Z,92.44
2022-10-09T01:05:01.210Z,92.54
2022-10-09T01:05:31.993Z,92.23
2022-10-09T01:06:02.756Z,92.13
2022-10-09T01:06:33.571Z,91.92
2022-10-09T01:07:04.364Z,92.13
2022-10-09T01:07:35.168Z,92.44
2022-10-09T01:08:05.943Z,92.54
2022-10-09T01:08:36.755Z,92.74
2022-10-09T01:09:07.572Z,92.74
2022-10-09T01:09:38.389Z,92.85
2022-10-09T01:10:09.173Z,92.99
2022-10-09T01:10:39.961Z,92.89
2022-10-09T01:11:10.761Z,93.20
2022-10-09T01:11:41.589Z,93.05
2022-10-09T01:12:12.369Z,93.51
2022-10-09T01:12:43.163Z,93.51
2022-10-09T01:13:13.942Z,93.62
2022-10-09T01:13:44.701Z,94.03
2022-10-09T01:14:15.530Z,94.13
2022-10-09T01:14:46.321Z,94.19
2022-10-09T01:15:17.091Z,94.23
2022-10-09T01:15:47.922Z,93.93
2022-10-09T01:16:23.486Z,93.93
2022-10-09T01:16:51.363Z,94.13
2022-10-09T01:17:22.154Z,94.03
2022-10-09T01:17:52.973Z,94.13
2022-10-09T01:18:23.753Z,94.81
2022-10-09T01:18:54.530Z,95.43
2022-10-09T01:19:25.323Z,95.95
2022-10-09T01:19:56.122Z,96.05
2022-10-09T01:20:26.906Z,96.15
2022-10-09T01:20:57.671Z,96.26
2022-10-09T01:21:28.528Z,96.36
2022-10-09T01:21:59.341Z,96.36
2022-10-09T01:22:30.125Z,96.36
2022-10-09T01:23:00.932Z,96.47
2022-10-09T01:23:31.725Z,96.67
2022-10-09T01:24:02.535Z,96.77
2022-10-09T01:24:33.366Z,96.98
2022-10-09T01:25:04.137Z,97.19
2022-10-09T01:25:34.950Z,97.29
2022-10-09T01:26:05.772Z,97.39
2022-10-09T01:26:36.545Z,97.39
2022-10-09T01:27:07.348Z,97.39
2022-10-09T01:27:38.119Z,97.25
2022-10-09T01:28:08.968Z,97.25
2022-10-09T01:28:39.803Z,97.14
2022-10-09T01:29:10.630Z,96.94
2022-10-09T01:29:41.466Z,96.73
2022-10-09T01:30:12.283Z,96.62
2022-10-09T01:30:43.168Z,96.62
2022-10-09T01:31:14.000Z,96.31
2022-10-09T01:31:44.841Z,96.01
2022-10-09T01:32:15.596Z,95.90
2022-10-09T01:32:46.717Z,96.01
2022-10-09T01:33:17.746Z,96.11
2022-10-09T01:33:48.529Z,96.11
2022-10-09T01:34:19.346Z,96.31
2022-10-09T01:34:50.134Z,96.21
2022-10-09T01:35:20.934Z,95.90
2022-10-09T01:35:51.716Z,95.59
2022-10-09T01:36:22.536Z,95.70
2022-10-09T01:36:53.323Z,95.70
2022-10-09T01:37:24.089Z,95.90
2022-10-09T01:37:54.883Z,96.01
2022-10-09T01:38:25.704Z,96.01
2022-10-09T01:38:56.496Z,95.90
2022-10-09T01:39:27.305Z,95.70
2022-10-09T01:39:58.099Z,95.28
2022-10-09T01:40:28.865Z,94.77
2022-10-09T01:40:59.650Z,94.56
2022-10-09T01:41:30.446Z,94.25
2022-10-09T01:42:01.214Z,93.84
2022-10-09T01:42:31.977Z,93.63
2022-10-09T01:43:02.808Z,93.22
2022-10-09T01:43:33.606Z,92.50
2022-10-09T01:44:04.427Z,92.50
2022-10-09T01:44:35.188Z,93.01
2022-10-09T01:45:05.973Z,93.01
2022-10-09T01:45:36.756Z,92.80
2022-10-09T01:46:07.600Z,93.22
2022-10-09T01:46:38.454Z,93.84
2022-10-09T01:47:09.258Z,94.15
2022-10-09T01:47:40.041Z,94.25
2022-10-09T01:48:10.811Z,94.09
2022-10-09T01:48:41.608Z,93.26
2022-10-09T01:49:12.419Z,93.05
2022-10-09T01:49:43.179Z,93.47
2022-10-09T01:50:13.978Z,93.88
2022-10-09T01:50:44.769Z,94.29
2022-10-09T01:51:15.577Z,94.40
2022-10-09T01:51:46.349Z,94.60
2022-10-09T01:52:17.161Z,94.50
2022-10-09T01:52:48.163Z,94.50
2022-10-09T01:53:19.091Z,94.71
2022-10-09T01:53:49.883Z,94.92
2022-10-09T01:54:20.719Z,95.02
2022-10-09T01:54:51.488Z,94.92
2022-10-09T01:55:22.289Z,94.40
2022-10-09T01:55:53.120Z,94.09
2022-10-09T01:56:23.906Z,94.60
2022-10-09T01:56:54.704Z,94.81
2022-10-09T01:57:25.531Z,95.12
2022-10-09T01:57:56.332Z,95.22
2022-10-09T01:58:27.128Z,95.32
2022-10-09T01:58:57.991Z,95.32
2022-10-09T01:59:28.834Z,95.12
2022-10-09T01:59:59.633Z,94.81
2022-10-09T02:00:30.460Z,94.29
2022-10-09T02:01:01.223Z,93.57
2022-10-09T02:01:32.073Z,93.26
2022-10-09T02:02:03.017Z,93.78
2022-10-09T02:02:33.944Z,94.19
2022-10-09T02:03:04.803Z,94.50
2022-10-09T02:03:35.672Z,94.29
2022-10-09T02:04:06.521Z,94.09
2022-10-09T02:04:37.331Z,93.88
2022-10-09T02:05:08.117Z,94.29
2022-10-09T02:05:38.883Z,94.50
2022-10-09T02:06:09.681Z,94.71
2022-10-09T02:06:40.462Z,95.02
2022-10-09T02:07:11.249Z,95.22
2022-10-09T02:07:42.056Z,95.53
2022-10-09T02:08:12.864Z,95.74
2022-10-09T02:08:43.633Z,95.74
2022-10-09T02:09:14.422Z,95.74
2022-10-09T02:09:45.212Z,95.64
2022-10-09T02:10:16.004Z,95.53
2022-10-09T02:10:46.803Z,95.53
2022-10-09T02:11:17.604Z,95.64
2022-10-09T02:11:48.394Z,95.64
2022-10-09T02:12:19.234Z,95.64
2022-10-09T02:12:50.248Z,95.84
2022-10-09T02:13:21.250Z,95.95
2022-10-09T02:13:52.053Z,95.95
2022-10-09T02:14:22.865Z,95.95
2022-10-09T02:14:53.658Z,95.74
2022-10-09T02:15:24.464Z,95.64
2022-10-09T02:15:55.311Z,95.22
2022-10-09T02:16:26.093Z,95.02
2022-10-09T02:16:56.890Z,94.92
2022-10-09T02:17:27.665Z,94.60
2022-10-09T02:17:58.462Z,94.40
2022-10-09T02:18:29.245Z,94.81
2022-10-09T02:19:00.047Z,94.92
2022-10-09T02:19:30.876Z,94.92
2022-10-09T02:20:01.686Z,94.71
2022-10-09T02:20:32.474Z,94.50
2022-10-09T02:21:03.266Z,94.71
2022-10-09T02:21:34.068Z,94.29
2022-10-09T02:22:04.891Z,93.88
2022-10-09T02:22:35.672Z,93.88
2022-10-09T02:23:06.458Z,93.98
2022-10-09T02:23:37.255Z,94.09
2022-10-09T02:24:08.105Z,94.19
2022-10-09T02:24:38.858Z,94.19
2022-10-09T02:25:09.688Z,93.98
2022-10-09T02:25:40.486Z,94.09
2022-10-09T02:26:11.279Z,94.40
2022-10-09T02:26:42.078Z,94.19
2022-10-09T02:27:12.885Z,93.78
2022-10-09T02:27:43.716Z,93.68
2022-10-09T02:28:14.536Z,93.98
2022-10-09T02:28:46.211Z,93.88
2022-10-09T02:29:17.088Z,93.88
2022-10-09T02:29:47.860Z,94.50
2022-10-09T02:30:18.659Z,94.60
2022-10-09T02:30:49.503Z,94.50
2022-10-09T02:31:20.351Z,94.50
2022-10-09T02:31:51.168Z,94.50
2022-10-09T02:32:21.972Z,94.50
2022-10-09T02:32:52.749Z,94.40
2022-10-09T02:33:23.541Z,93.98
2022-10-09T02:34:52.673Z,92.99
2022-10-09T02:35:23.462Z,93.20
2022-10-09T02:35:54.320Z,92.99
2022-10-09T02:36:25.147Z,92.68
2022-10-09T02:36:55.966Z,92.48
2022-10-09T02:37:26.759Z,91.55
2022-10-09T02:37:57.582Z,91.96
2022-10-09T02:38:28.383Z,92.99
2022-10-09T02:38:59.213Z,93.20
2022-10-09T02:39:30.056Z,93.51
2022-10-09T02:40:00.884Z,93.41
2022-10-09T02:40:31.704Z,93.10
2022-10-09T02:41:02.502Z,92.99
2022-10-09T02:41:33.321Z,93.20
2022-10-09T02:42:04.121Z,93.41
2022-10-09T02:42:34.954Z,93.45
2022-10-09T02:43:05.753Z,93.24
2022-10-09T02:43:36.603Z,92.72
2022-10-09T02:44:07.436Z,93.14
2022-10-09T02:44:38.255Z,93.24
2022-10-09T02:45:09.063Z,92.93
2022-10-09T02:45:39.866Z,92.42
2022-10-09T02:46:10.734Z,92.21
2022-10-09T02:46:41.563Z,92.52
2022-10-09T02:47:12.408Z,93.24
2022-10-09T02:47:43.233Z,93.35
2022-10-09T02:48:14.069Z,93.35
2022-10-09T02:48:44.884Z,93.35
2022-10-09T02:49:15.732Z,93.04
2022-10-09T02:49:46.557Z,92.42
2022-10-09T02:50:17.380Z,92.21
2022-10-09T02:50:48.213Z,92.83
2022-10-09T02:51:19.032Z,92.83
2022-10-09T02:51:49.847Z,92.93
2022-10-09T02:52:20.685Z,93.24
2022-10-09T02:52:51.667Z,93.24
2022-10-09T02:53:22.653Z,93.14
2022-10-09T02:53:53.442Z,93.76
2022-10-09T02:54:24.324Z,94.07
2022-10-09T02:54:55.159Z,94.28
2022-10-09T02:55:25.952Z,94.07
2022-10-09T02:55:56.769Z,93.55
2022-10-09T02:56:27.565Z,93.14
2022-10-09T02:56:58.373Z,92.97
2022-10-09T02:57:29.227Z,92.57
2022-10-09T02:58:00.081Z,92.05
2022-10-09T02:58:30.904Z,92.57
2022-10-09T02:59:01.733Z,92.97
2022-10-09T02:59:32.563Z,92.87
2022-10-09T03:00:03.367Z,92.67
2022-10-09T03:00:34.180Z,92.77
2022-10-09T03:01:04.998Z,92.77
2022-10-09T03:01:35.871Z,92.57
2022-10-09T03:02:06.874Z,92.25
2022-10-09T03:02:37.893Z,92.15
2022-10-09T03:03:08.956Z,92.57
2022-10-09T03:03:39.846Z,92.46
2022-10-09T03:04:10.698Z,92.25
2022-10-09T03:04:41.560Z,92.36
2022-10-09T03:05:12.420Z,92.36
2022-10-09T03:05:43.291Z,92.57
2022-10-09T03:06:14.103Z,92.46
2022-10-09T03:06:44.958Z,92.50
2022-10-09T03:07:15.759Z,92.81
2022-10-09T03:07:46.593Z,93.02
2022-10-09T03:08:17.429Z,93.02
2022-10-09T03:08:48.245Z,93.12
2022-10-09T03:09:19.020Z,93.54
2022-10-09T03:09:49.876Z,93.85
2022-10-09T03:10:20.669Z,94.06
2022-10-09T03:10:51.484Z,94.16
2022-10-09T03:11:22.303Z,94.26
2022-10-09T03:11:53.114Z,94.37
2022-10-09T03:12:23.961Z,94.06
2022-10-09T03:12:54.808Z,93.85
2022-10-09T03:13:25.665Z,93.85
2022-10-09T03:13:56.447Z,93.64
2022-10-09T03:14:27.249Z,93.43
2022-10-09T03:14:58.059Z,93.12
2022-10-09T03:15:28.882Z,93.12
2022-10-09T03:15:59.714Z,93.33
2022-10-09T03:16:30.657Z,93.43
2022-10-09T03:17:01.499Z,93.74
2022-10-09T03:17:32.355Z,93.43
2022-10-09T03:18:03.185Z,93.43
2022-10-09T03:18:34.020Z,93.33
2022-10-09T03:19:04.831Z,93.33
2022-10-09T03:19:35.659Z,93.23
2022-10-09T03:20:06.504Z,93.43
2022-10-09T03:20:37.290Z,93.54
2022-10-09T03:21:08.080Z,93.64
2022-10-09T03:21:38.864Z,93.12
2022-10-09T03:22:09.711Z,93.43
2022-10-09T03:22:40.528Z,93.64
2022-10-09T03:23:11.342Z,93.43
2022-10-09T03:23:42.829Z,93.23
2022-10-09T03:24:13.699Z,93.64
2022-10-09T03:24:44.514Z,93.74
2022-10-09T03:25:15.373Z,93.95
2022-10-09T03:25:46.216Z,94.16
2022-10-09T03:26:17.016Z,94.16
2022-10-09T03:26:47.852Z,93.85
2022-10-09T03:27:18.672Z,93.64
2022-10-09T03:27:49.496Z,93.12
2022-10-09T03:28:20.312Z,93.02
2022-10-09T03:28:51.192Z,93.54
2022-10-09T03:29:22.051Z,94.16
2022-10-09T03:29:52.861Z,94.37
2022-10-09T03:30:23.669Z,94.06
2022-10-09T03:30:54.552Z,93.74
2022-10-09T03:31:51.870Z,93.74
2022-10-09T03:31:58.117Z,93.74
2022-10-09T03:32:29.108Z,93.85
2022-10-09T03:32:59.992Z,94.16
2022-10-09T03:33:30.792Z,94.16
2022-10-09T03:34:01.633Z,93.74
2022-10-09T03:34:32.445Z,93.33
2022-10-09T03:35:03.253Z,93.54
2022-10-09T03:35:34.093Z,93.64
2022-10-09T03:36:04.895Z,93.85
2022-10-09T03:36:35.736Z,93.74
2022-10-09T03:37:06.507Z,93.85
2022-10-09T03:37:37.359Z,93.85
2022-10-09T03:38:08.222Z,93.64
2022-10-09T03:38:39.047Z,93.58
2022-10-09T03:39:09.834Z,93.68
2022-10-09T03:39:40.673Z,93.48
2022-10-09T03:40:11.453Z,93.68
2022-10-09T03:40:42.256Z,93.58
2022-10-09T03:41:13.117Z,93.85
2022-10-09T03:41:43.909Z,94.47
2022-10-09T03:42:14.770Z,94.78
2022-10-09T03:42:45.716Z,94.78
2022-10-09T03:43:16.581Z,95.29
2022-10-09T03:43:47.411Z,95.40
2022-10-09T03:44:18.257Z,95.19
2022-10-09T03:44:49.086Z,94.06
2022-10-09T03:45:19.895Z,93.02
2022-10-09T03:45:50.714Z,92.81
2022-10-09T03:46:21.559Z,93.02
2022-10-09T03:46:52.483Z,93.12
2022-10-09T03:47:23.284Z,93.54
2022-10-09T03:47:54.077Z,93.64
2022-10-09T03:48:24.936Z,93.48
2022-10-09T03:48:55.774Z,93.48
2022-10-09T03:49:26.544Z,92.96
2022-10-09T03:49:57.328Z,92.96
2022-10-09T03:50:28.157Z,92.65
2022-10-09T03:50:58.977Z,93.37
2022-10-09T03:51:29.810Z,93.68
2022-10-09T03:52:00.638Z,94.10
2022-10-09T03:52:31.491Z,94.62
2022-10-09T03:53:02.303Z,94.68
2022-10-09T03:53:33.132Z,94.68
2022-10-09T03:54:03.990Z,94.98
2022-10-09T03:54:34.850Z,95.09
2022-10-09T03:55:05.648Z,95.19
2022-10-09T03:55:36.449Z,95.09
2022-10-09T03:56:07.279Z,94.68
2022-10-09T03:56:38.118Z,94.06
2022-10-09T03:57:08.944Z,93.54
2022-10-09T03:57:39.748Z,93.43
2022-10-09T03:58:10.559Z,93.95
2022-10-09T03:58:41.396Z,93.95
2022-10-09T03:59:12.201Z,93.89
2022-10-09T03:59:43.039Z,93.74
2022-10-09T04:00:13.819Z,94.06
2022-10-09T04:00:44.707Z,94.10
2022-10-09T04:01:15.638Z,94.31
2022-10-09T04:01:46.498Z,94.47
2022-10-09T04:02:17.397Z,94.47
2022-10-09T04:02:48.683Z,94.20
2022-10-09T04:03:19.713Z,93.99
2022-10-09T04:03:50.565Z,93.99
2022-10-09T04:04:21.407Z,94.10
2022-10-09T04:04:52.209Z,93.99
2022-10-09T04:05:23.094Z,93.89
2022-10-09T04:05:54.045Z,93.68
2022-10-09T04:06:24.931Z,93.68
2022-10-09T04:06:55.729Z,93.37
2022-10-09T04:07:26.547Z,93.37
2022-10-09T04:07:57.338Z,93.48
2022-10-09T04:08:28.204Z,93.37
2022-10-09T04:08:58.989Z,93.68
2022-10-09T04:09:29.858Z,93.99
2022-10-09T04:10:00.629Z,94.41
2022-10-09T04:10:31.573Z,94.20
2022-10-09T04:11:02.432Z,93.68
2022-10-09T04:11:33.273Z,93.37
2022-10-09T04:12:04.073Z,93.37
2022-10-09T04:12:34.940Z,93.48
2022-10-09T04:13:05.782Z,93.37
2022-10-09T04:13:36.619Z,93.58
2022-10-09T04:14:07.442Z,93.79
2022-10-09T04:14:38.308Z,94.20
2022-10-09T04:15:09.143Z,94.31
2022-10-09T04:15:39.981Z,94.31
2022-10-09T04:16:10.945Z,94.20
2022-10-09T04:16:41.847Z,93.99
2022-10-09T04:17:12.726Z,93.79
2022-10-09T04:17:43.500Z,93.68
2022-10-09T04:18:14.273Z,93.79
2022-10-09T04:18:45.100Z,93.89
2022-10-09T04:19:15.936Z,93.79
2022-10-09T04:19:46.779Z,93.68
2022-10-09T04:20:17.625Z,93.48
2022-10-09T04:20:48.459Z,93.27
2022-10-09T04:21:19.340Z,93.48
2022-10-09T04:21:50.184Z,93.48
2022-10-09T04:22:21.015Z,93.41
2022-10-09T04:22:52.078Z,93.10
2022-10-09T04:23:22.943Z,93.00
2022-10-09T04:23:53.739Z,93.00
2022-10-09T04:24:24.589Z,93.10
2022-10-09T04:24:55.444Z,93.52
2022-10-09T04:25:26.254Z,93.62
2022-10-09T04:25:57.084Z,93.52
2022-10-09T04:26:27.893Z,93.52
2022-10-09T04:26:58.716Z,93.62
2022-10-09T04:27:29.565Z,94.04
2022-10-09T04:28:00.435Z,94.35
2022-10-09T04:28:31.332Z,94.45
2022-10-09T04:29:02.200Z,94.56
2022-10-09T04:29:33.024Z,94.66
2022-10-09T04:30:03.873Z,95.18
2022-10-09T04:30:34.687Z,95.18
2022-10-09T04:31:05.554Z,94.66
2022-10-09T04:31:36.423Z,94.66
2022-10-09T04:32:07.236Z,94.93
2022-10-09T04:32:38.043Z,94.97
2022-10-09T04:33:12.693Z,94.93
2022-10-09T04:33:40.789Z,94.66
2022-10-09T04:34:11.575Z,94.04
2022-10-09T04:34:42.416Z,93.52
2022-10-09T04:35:13.253Z,93.52
2022-10-09T04:35:44.113Z,93.41
2022-10-09T04:36:14.955Z,94.04
2022-10-09T04:36:45.746Z,94.35
2022-10-09T04:37:16.582Z,94.45
2022-10-09T04:37:47.419Z,94.56
2022-10-09T04:38:18.229Z,94.76
2022-10-09T04:38:49.051Z,94.87
2022-10-09T04:39:19.876Z,94.87
2022-10-09T04:39:50.691Z,95.07
2022-10-09T04:40:21.505Z,95.39
2022-10-09T04:40:52.305Z,95.59
2022-10-09T04:41:23.172Z,95.70
2022-10-09T04:41:53.946Z,95.90
2022-10-09T04:42:24.729Z,95.90
2022-10-09T04:42:55.534Z,95.70
2022-10-09T04:43:26.378Z,95.49
2022-10-09T04:43:57.222Z,95.39
2022-10-09T04:44:28.046Z,95.34
2022-10-09T04:44:58.876Z,95.34
2022-10-09T04:45:29.737Z,95.54
2022-10-09T04:46:00.618Z,95.34
2022-10-09T04:46:31.543Z,95.34
2022-10-09T04:47:02.381Z,95.54
2022-10-09T04:47:33.223Z,95.54
2022-10-09T04:48:04.059Z,95.86
2022-10-09T04:48:34.869Z,95.75
2022-10-09T04:49:05.672Z,95.65
2022-10-09T04:49:36.515Z,95.44
2022-10-09T04:50:07.349Z,95.14
2022-10-09T04:50:38.168Z,94.72
2022-10-09T04:51:08.968Z,94.62
2022-10-09T04:51:39.798Z,94.41
2022-10-09T04:52:10.640Z,93.79
2022-10-09T04:52:41.493Z,93.48
2022-10-09T04:53:12.288Z,93.99
2022-10-09T04:53:43.111Z,94.10
2022-10-09T04:54:13.921Z,93.79
2022-10-09T04:54:44.790Z,93.52
2022-10-09T04:55:15.569Z,93.31
2022-10-09T04:55:46.418Z,93.00
2022-10-09T04:56:17.292Z,93.21
2022-10-09T04:56:48.131Z,93.83
2022-10-09T04:57:19.009Z,94.35
2022-10-09T04:57:49.797Z,94.45
2022-10-09T04:58:20.631Z,94.76
2022-10-09T04:58:51.456Z,94.87
2022-10-09T04:59:22.252Z,94.66
2022-10-09T04:59:53.079Z,94.04
2022-10-09T05:00:23.891Z,93.73
2022-10-09T05:00:54.744Z,93.83
2022-10-09T05:01:25.627Z,94.24
2022-10-09T05:01:56.501Z,94.04
2022-10-09T05:02:27.442Z,93.73
2022-10-09T05:02:58.283Z,93.62
2022-10-09T05:03:29.112Z,93.52
2022-10-09T05:03:59.913Z,93.62
2022-10-09T05:04:30.761Z,93.93
2022-10-09T05:05:01.568Z,93.83
2022-10-09T05:05:32.359Z,93.73
2022-10-09T05:06:03.161Z,93.93
2022-10-09T05:06:33.983Z,93.93
2022-10-09T05:07:04.761Z,93.73
2022-10-09T05:07:35.583Z,94.35
2022-10-09T05:08:06.400Z,94.45
2022-10-09T05:08:37.224Z,94.35
2022-10-09T05:09:08.000Z,94.35
2022-10-09T05:09:38.815Z,94.56
2022-10-09T05:10:09.623Z,94.56
2022-10-09T05:10:40.397Z,94.39
2022-10-09T05:11:11.181Z,94.24
2022-10-09T05:11:42.961Z,94.35
2022-10-09T05:12:13.843Z,94.87
2022-10-09T05:12:44.630Z,94.76
2022-10-09T05:13:15.411Z,94.56
2022-10-09T05:13:46.234Z,94.35
2022-10-09T05:14:17.013Z,94.45
2022-10-09T05:14:47.833Z,94.45
2022-10-09T05:15:18.644Z,94.39
2022-10-09T05:15:49.436Z,94.39
2022-10-09T05:16:20.309Z,94.49
2022-10-09T05:17:12.638Z,94.60
2022-10-09T05:17:24.014Z,94.49
2022-10-09T05:17:54.872Z,94.18
2022-10-09T05:18:25.655Z,94.39
2022-10-09T05:18:56.502Z,94.60
2022-10-09T05:19:27.322Z,95.07
2022-10-09T05:19:58.393Z,95.18
2022-10-09T05:20:29.154Z,95.18
2022-10-09T05:20:59.946Z,94.87
2022-10-09T05:21:30.772Z,94.29
2022-10-09T05:22:01.554Z,93.98
2022-10-09T05:22:32.311Z,94.08
2022-10-09T05:23:03.150Z,94.18
2022-10-09T05:23:33.909Z,94.29
2022-10-09T05:24:09.468Z,94.18
2022-10-09T05:24:37.331Z,94.76
2022-10-09T05:25:08.166Z,94.81
2022-10-09T05:25:38.965Z,94.91
2022-10-09T05:26:09.799Z,94.97
2022-10-09T05:26:40.647Z,94.97
2022-10-09T05:27:11.466Z,95.18
2022-10-09T05:27:42.270Z,95.49
2022-10-09T05:28:13.189Z,95.80
2022-10-09T05:28:44.087Z,95.80
2022-10-09T05:29:14.876Z,95.80
2022-10-09T05:29:45.692Z,95.49
2022-10-09T05:30:16.453Z,95.70
2022-10-09T05:30:47.247Z,95.70
2022-10-09T05:31:18.135Z,95.70
2022-10-09T05:31:49.802Z,95.80
2022-10-09T05:32:20.702Z,96.31
2022-10-09T05:32:51.833Z,96.42
2022-10-09T05:33:22.905Z,96.42
2022-10-09T05:33:53.709Z,96.42
2022-10-09T05:34:24.537Z,96.52
2022-10-09T05:34:55.355Z,96.62
2022-10-09T05:35:26.174Z,96.73
2022-10-09T05:35:56.956Z,97.04
2022-10-09T05:36:27.788Z,97.35
2022-10-09T05:36:58.616Z,97.45
2022-10-09T05:37:29.423Z,97.52
2022-10-09T05:38:00.190Z,97.62
2022-10-09T05:38:30.971Z,97.62
2022-10-09T05:39:01.758Z,97.52
2022-10-09T05:39:32.575Z,97.41
2022-10-09T05:40:03.360Z,97.41
2022-10-09T05:40:34.147Z,97.52
2022-10-09T05:41:04.981Z,97.72
2022-10-09T05:41:35.795Z,98.03
2022-10-09T05:42:06.628Z,98.13
2022-10-09T05:42:37.417Z,98.34
2022-10-09T05:43:08.218Z,98.55
2022-10-09T05:43:39.021Z,98.61
2022-10-09T05:44:09.837Z,98.71
2022-10-09T05:44:40.638Z,98.82
2022-10-09T05:45:11.485Z,98.92
2022-10-09T05:45:42.329Z,98.92
2022-10-09T05:46:13.198Z,99.02
2022-10-09T05:46:43.998Z,98.92
2022-10-09T05:47:14.809Z,98.92
2022-10-09T05:47:45.610Z,98.92
2022-10-09T05:48:16.432Z,99.13
2022-10-09T05:48:47.264Z,99.49
2022-10-09T05:49:18.088Z,99.70
2022-10-09T05:49:48.881Z,99.80
2022-10-09T05:50:19.671Z,99.80
2022-10-09T05:50:50.478Z,99.91
2022-10-09T05:51:21.317Z,99.91
2022-10-09T05:51:52.109Z,99.91
2022-10-09T05:52:22.919Z,99.91
2022-10-09T05:52:53.769Z,99.96
2022-10-09T05:53:24.562Z,99.96
2022-10-09T05:53:55.392Z,99.96
2022-10-09T05:54:26.180Z,99.96
2022-10-09T05:54:56.971Z,99.96
2022-10-09T05:55:27.812Z,99.99
2022-10-09T05:56:02.984Z,99.99
2022-10-09T05:56:31.289Z,99.99
2022-10-09T05:57:02.061Z,99.99
2022-10-09T05:57:32.922Z,99.99
2022-10-09T05:58:03.727Z,99.99
2022-10-09T05:58:34.507Z,99.99
2022-10-09T05:59:05.375Z,99.99
2022-10-09T05:59:36.163Z,99.99
2022-10-09T06:00:07.002Z,99.99
2022-10-09T06:00:37.813Z,99.99
2022-10-09T06:01:08.663Z,99.99
2022-10-09T06:01:39.548Z,99.99
2022-10-09T06:02:10.371Z,99.99
2022-10-09T06:02:41.209Z,99.99
2022-10-09T06:03:12.033Z,99.99
2022-10-09T06:03:42.791Z,99.99
2022-10-09T06:04:13.613Z,99.99
2022-10-09T06:04:44.400Z,99.99
2022-10-09T06:05:15.237Z,99.99
2022-10-09T06:05:46.033Z,99.99
2022-10-09T06:06:16.843Z,99.99
2022-10-09T06:06:47.723Z,99.99
2022-10-09T06:07:18.554Z,99.99
2022-10-09T06:07:49.353Z,99.99
2022-10-09T06:08:20.152Z,99.99
2022-10-09T06:08:50.946Z,99.99
2022-10-09T06:09:21.753Z,99.99
2022-10-09T06:09:52.542Z,99.99
2022-10-09T06:10:23.319Z,99.99
2022-10-09T06:10:54.142Z,99.99
2022-10-09T06:11:24.974Z,99.99
2022-10-09T06:11:55.783Z,99.99
2022-10-09T06:12:26.573Z,99.99
2022-10-09T06:12:57.386Z,99.99
2022-10-09T06:13:28.194Z,99.99
2022-10-09T06:13:58.983Z,99.99
2022-10-09T06:14:29.812Z,99.99
2022-10-09T06:15:00.631Z,99.99
2022-10-09T06:15:31.394Z,99.99
2022-10-09T06:16:02.153Z,99.99
2022-10-09T06:16:32.971Z,99.99
2022-10-09T06:17:03.876Z,99.99
2022-10-09T06:17:34.714Z,99.99
2022-10-09T06:18:05.515Z,99.99
2022-10-09T06:18:36.344Z,99.99
2022-10-09T06:19:07.137Z,99.99
2022-10-09T06:19:37.955Z,99.99
2022-10-09T06:20:08.786Z,99.99
2022-10-09T06:20:39.577Z,99.99
2022-10-09T06:21:10.377Z,99.99
2022-10-09T06:21:41.192Z,99.99
2022-10-09T06:22:12.004Z,99.99
2022-10-09T06:22:42.795Z,99.99
2022-10-09T06:23:13.594Z,99.99
2022-10-09T06:23:44.400Z,99.99
2022-10-09T06:24:15.195Z,99.99
2022-10-09T06:24:45.983Z,99.99
2022-10-09T06:25:16.802Z,99.99
2022-10-09T06:25:47.599Z,99.99
2022-10-09T06:26:18.402Z,99.99
2022-10-09T06:26:49.228Z,99.99
2022-10-09T06:27:20.037Z,99.99
2022-10-09T06:27:50.827Z,99.99
2022-10-09T06:28:21.721Z,99.99
2022-10-09T06:28:52.564Z,99.99
2022-10-09T06:29:23.372Z,99.99
2022-10-09T06:29:54.145Z,99.99
2022-10-09T06:30:24.908Z,99.99
2022-10-09T06:30:55.743Z,99.99
2022-10-09T06:31:26.575Z,99.99
2022-10-09T06:31:57.420Z,99.99
2022-10-09T06:32:28.222Z,99.99
2022-10-09T06:32:59.046Z,99.94
2022-10-09T06:33:29.840Z,99.99
2022-10-09T06:34:00.662Z,99.99
2022-10-09T06:34:31.467Z,99.99
2022-10-09T06:35:02.289Z,99.99
2022-10-09T06:35:33.069Z,99.99
2022-10-09T06:36:09.726Z,99.99
2022-10-09T06:36:36.556Z,99.99
2022-10-09T06:37:07.338Z,99.99
2022-10-09T06:37:38.122Z,99.99
2022-10-09T06:38:08.930Z,99.99